sensor_id;sensor_type;location;lat;lon;timestamp;P1;durP1;ratioP1;P2;durP2;ratioP2
11703;SDS011;5908;51.354;7.458;2023-09-07T08:44:49;14.00;;;7.05;;
11703;SDS011;5908;51.354;7.458;2023-09-07T08:47:18;11.88;;;6.68;;
11703;SDS011;5908;51.354;7.458;2023-09-07T08:49:48;15.10;;;10.93;;
11703;SDS011;5908;51.354;7.458;2023-09-07T08:52:15;13.35;;;9.30;;
11703;SDS011;5908;51.354;7.458;2023-09-07T08:54:43;9.25;;;5.78;;
11703;SDS011;5908;51.354;7.458;2023-09-07T08:57:11;11.30;;;6.53;;
11703;SDS011;5908;51.354;7.458;2023-09-07T08:59:39;18.10;;;13.05;;
11703;SDS011;5908;51.354;7.458;2023-09-07T09:02:07;11.63;;;5.45;;
11703;SDS011;5908;51.354;7.458;2023-09-07T09:04:36;12.05;;;8.68;;
11703;SDS011;5908;51.354;7.458;2023-09-07T09:07:05;13.57;;;5.88;;
11703;SDS011;5908;51.354;7.458;2023-09-07T09:09:32;12.27;;;5.20;;
11703;SDS011;5908;51.354;7.458;2023-09-07T09:12:06;7.47;;;4.68;;
11703;SDS011;5908;51.354;7.458;2023-09-07T09:14:34;8.55;;;5.70;;
11703;SDS011;5908;51.354;7.458;2023-09-07T09:17:00;7.93;;;5.13;;
11703;SDS011;5908;51.354;7.458;2023-09-07T09:19:30;12.27;;;5.18;;
11703;SDS011;5908;51.354;7.458;2023-09-07T09:21:58;15.25;;;6.47;;
11703;SDS011;5908;51.354;7.458;2023-09-07T09:24:26;6.30;;;4.70;;
11703;SDS011;5908;51.354;7.458;2023-09-07T09:26:53;10.05;;;5.55;;
11703;SDS011;5908;51.354;7.458;2023-09-07T09:29:21;8.93;;;4.97;;
11703;SDS011;5908;51.354;7.458;2023-09-07T09:31:49;5.22;;;4.80;;
11703;SDS011;5908;51.354;7.458;2023-09-07T09:34:17;9.63;;;5.38;;
11703;SDS011;5908;51.354;7.458;2023-09-07T09:36:45;11.35;;;5.45;;
11703;SDS011;5908;51.354;7.458;2023-09-07T09:39:21;7.53;;;5.28;;
11703;SDS011;5908;51.354;7.458;2023-09-07T09:41:50;11.05;;;6.22;;
11703;SDS011;5908;51.354;7.458;2023-09-07T09:44:17;13.40;;;8.73;;
11703;SDS011;5908;51.354;7.458;2023-09-07T09:46:46;7.38;;;4.95;;
11703;SDS011;5908;51.354;7.458;2023-09-07T09:49:15;7.40;;;5.05;;
11703;SDS011;5908;51.354;7.458;2023-09-07T09:51:43;26.85;;;21.00;;
11703;SDS011;5908;51.354;7.458;2023-09-07T09:54:13;5.80;;;4.90;;
11703;SDS011;5908;51.354;7.458;2023-09-07T09:56:40;25.10;;;20.83;;
11703;SDS011;5908;51.354;7.458;2023-09-07T09:59:09;44.50;;;35.53;;
11703;SDS011;5908;51.354;7.458;2023-09-07T10:01:43;15.95;;;13.05;;
11703;SDS011;5908;51.354;7.458;2023-09-07T10:04:12;5.10;;;4.60;;
11703;SDS011;5908;51.354;7.458;2023-09-07T10:06:49;9.43;;;4.95;;
11703;SDS011;5908;51.354;7.458;2023-09-07T10:09:19;6.57;;;4.80;;
11703;SDS011;5908;51.354;7.458;2023-09-07T10:11:50;21.63;;;19.35;;
11703;SDS011;5908;51.354;7.458;2023-09-07T10:14:20;7.35;;;4.75;;
11703;SDS011;5908;51.354;7.458;2023-09-07T10:16:47;9.18;;;5.20;;
11703;SDS011;5908;51.354;7.458;2023-09-07T10:19:17;10.27;;;8.43;;
11703;SDS011;5908;51.354;7.458;2023-09-07T10:21:44;16.77;;;13.52;;
11703;SDS011;5908;51.354;7.458;2023-09-07T10:24:11;6.00;;;4.40;;
11703;SDS011;5908;51.354;7.458;2023-09-07T10:26:55;7.70;;;6.43;;
11703;SDS011;5908;51.354;7.458;2023-09-07T10:29:24;5.43;;;4.93;;
11703;SDS011;5908;51.354;7.458;2023-09-07T10:31:51;6.13;;;5.38;;
11703;SDS011;5908;51.354;7.458;2023-09-07T10:34:18;8.32;;;6.60;;
11703;SDS011;5908;51.354;7.458;2023-09-07T10:36:47;5.80;;;5.18;;
11703;SDS011;5908;51.354;7.458;2023-09-07T10:39:16;6.50;;;5.85;;
11703;SDS011;5908;51.354;7.458;2023-09-07T10:41:43;13.75;;;12.35;;
11703;SDS011;5908;51.354;7.458;2023-09-07T10:44:11;7.88;;;6.53;;
11703;SDS011;5908;51.354;7.458;2023-09-07T10:46:40;6.55;;;5.35;;
11703;SDS011;5908;51.354;7.458;2023-09-07T10:49:08;8.82;;;6.93;;
11703;SDS011;5908;51.354;7.458;2023-09-07T10:51:41;8.60;;;6.45;;
11703;SDS011;5908;51.354;7.458;2023-09-07T10:54:16;5.32;;;4.80;;
11703;SDS011;5908;51.354;7.458;2023-09-07T10:56:44;10.85;;;7.90;;
11703;SDS011;5908;51.354;7.458;2023-09-07T10:59:12;41.35;;;35.47;;
11703;SDS011;5908;51.354;7.458;2023-09-07T11:01:41;58.22;;;51.25;;
11703;SDS011;5908;51.354;7.458;2023-09-07T11:04:07;7.28;;;5.55;;
11703;SDS011;5908;51.354;7.458;2023-09-07T11:06:36;5.30;;;4.80;;
11703;SDS011;5908;51.354;7.458;2023-09-07T11:09:06;18.58;;;16.25;;
11703;SDS011;5908;51.354;7.458;2023-09-07T11:11:35;32.38;;;25.38;;
11703;SDS011;5908;51.354;7.458;2023-09-07T11:14:02;28.92;;;25.30;;
11703;SDS011;5908;51.354;7.458;2023-09-07T11:16:29;5.68;;;5.10;;
11703;SDS011;5908;51.354;7.458;2023-09-07T11:18:59;5.78;;;4.97;;
11703;SDS011;5908;51.354;7.458;2023-09-07T11:21:29;6.78;;;5.63;;
11703;SDS011;5908;51.354;7.458;2023-09-07T11:23:57;20.40;;;17.58;;
11703;SDS011;5908;51.354;7.458;2023-09-07T11:26:24;12.00;;;8.85;;
11703;SDS011;5908;51.354;7.458;2023-09-07T11:28:51;79.18;;;67.88;;
11703;SDS011;5908;51.354;7.458;2023-09-07T11:31:18;15.25;;;12.90;;
11703;SDS011;5908;51.354;7.458;2023-09-07T11:33:46;26.77;;;23.25;;
11703;SDS011;5908;51.354;7.458;2023-09-07T11:36:15;6.72;;;6.03;;
11703;SDS011;5908;51.354;7.458;2023-09-07T11:38:42;14.85;;;12.73;;
11703;SDS011;5908;51.354;7.458;2023-09-07T11:41:11;12.20;;;5.95;;
11703;SDS011;5908;51.354;7.458;2023-09-07T11:43:37;4.90;;;4.50;;
11703;SDS011;5908;51.354;7.458;2023-09-07T11:46:05;19.95;;;15.48;;
11703;SDS011;5908;51.354;7.458;2023-09-07T11:48:31;18.77;;;16.77;;
11703;SDS011;5908;51.354;7.458;2023-09-07T11:50:59;42.13;;;35.38;;
11703;SDS011;5908;51.354;7.458;2023-09-07T11:53:27;23.17;;;19.48;;
11703;SDS011;5908;51.354;7.458;2023-09-07T11:55:55;11.27;;;9.55;;
11703;SDS011;5908;51.354;7.458;2023-09-07T11:58:23;28.45;;;23.67;;
11703;SDS011;5908;51.354;7.458;2023-09-07T12:00:51;14.68;;;12.38;;
11703;SDS011;5908;51.354;7.458;2023-09-07T12:03:18;9.02;;;7.57;;
11703;SDS011;5908;51.354;7.458;2023-09-07T12:05:45;12.23;;;10.52;;
11703;SDS011;5908;51.354;7.458;2023-09-07T12:08:11;7.75;;;5.95;;
11703;SDS011;5908;51.354;7.458;2023-09-07T12:10:40;6.07;;;5.00;;
11703;SDS011;5908;51.354;7.458;2023-09-07T12:13:07;9.77;;;8.73;;
11703;SDS011;5908;51.354;7.458;2023-09-07T12:15:34;8.07;;;5.38;;
11703;SDS011;5908;51.354;7.458;2023-09-07T12:18:01;9.88;;;7.65;;
11703;SDS011;5908;51.354;7.458;2023-09-07T12:20:28;26.40;;;20.27;;
11703;SDS011;5908;51.354;7.458;2023-09-07T12:22:55;12.27;;;9.45;;
11703;SDS011;5908;51.354;7.458;2023-09-07T12:25:21;32.63;;;29.15;;
11703;SDS011;5908;51.354;7.458;2023-09-07T12:27:49;38.78;;;32.15;;
11703;SDS011;5908;51.354;7.458;2023-09-07T12:30:17;9.50;;;8.50;;
11703;SDS011;5908;51.354;7.458;2023-09-07T12:32:45;67.45;;;58.28;;
11703;SDS011;5908;51.354;7.458;2023-09-07T12:35:12;100.28;;;89.35;;
11703;SDS011;5908;51.354;7.458;2023-09-07T12:37:40;69.35;;;61.67;;
11703;SDS011;5908;51.354;7.458;2023-09-07T12:40:07;73.82;;;65.38;;
11703;SDS011;5908;51.354;7.458;2023-09-07T12:42:37;77.90;;;67.60;;
11703;SDS011;5908;51.354;7.458;2023-09-07T12:45:06;74.43;;;66.55;;
11703;SDS011;5908;51.354;7.458;2023-09-07T12:47:34;7.22;;;5.60;;
11703;SDS011;5908;51.354;7.458;2023-09-07T12:50:01;120.13;;;107.25;;
11703;SDS011;5908;51.354;7.458;2023-09-07T12:52:29;14.27;;;12.80;;
11703;SDS011;5908;51.354;7.458;2023-09-07T12:54:56;72.40;;;64.57;;
11703;SDS011;5908;51.354;7.458;2023-09-07T12:57:23;78.05;;;68.72;;
11703;SDS011;5908;51.354;7.458;2023-09-07T12:59:50;74.95;;;67.05;;
11703;SDS011;5908;51.354;7.458;2023-09-07T13:02:18;89.75;;;80.07;;
11703;SDS011;5908;51.354;7.458;2023-09-07T13:04:45;26.77;;;23.48;;
11703;SDS011;5908;51.354;7.458;2023-09-07T13:07:11;35.83;;;31.45;;
11703;SDS011;5908;51.354;7.458;2023-09-07T13:09:38;159.40;;;136.20;;
11703;SDS011;5908;51.354;7.458;2023-09-07T13:12:05;87.25;;;72.43;;
11703;SDS011;5908;51.354;7.458;2023-09-07T13:14:32;86.18;;;76.68;;
11703;SDS011;5908;51.354;7.458;2023-09-07T13:16:59;31.10;;;27.75;;
11703;SDS011;5908;51.354;7.458;2023-09-07T13:19:28;52.45;;;46.05;;
11703;SDS011;5908;51.354;7.458;2023-09-07T13:21:54;123.53;;;110.35;;
11703;SDS011;5908;51.354;7.458;2023-09-07T13:24:21;16.35;;;13.10;;
11703;SDS011;5908;51.354;7.458;2023-09-07T13:26:50;77.80;;;69.35;;
11703;SDS011;5908;51.354;7.458;2023-09-07T13:29:17;8.55;;;6.95;;
11703;SDS011;5908;51.354;7.458;2023-09-07T13:31:43;92.70;;;82.60;;
11703;SDS011;5908;51.354;7.458;2023-09-07T13:34:10;27.23;;;24.35;;
11703;SDS011;5908;51.354;7.458;2023-09-07T13:36:38;96.60;;;86.05;;
11703;SDS011;5908;51.354;7.458;2023-09-07T13:39:05;22.55;;;20.20;;
11703;SDS011;5908;51.354;7.458;2023-09-07T13:41:32;15.43;;;12.73;;
11703;SDS011;5908;51.354;7.458;2023-09-07T13:43:59;7.25;;;5.97;;
11703;SDS011;5908;51.354;7.458;2023-09-07T13:46:25;5.50;;;4.75;;
11703;SDS011;5908;51.354;7.458;2023-09-07T13:48:52;9.65;;;7.63;;
11703;SDS011;5908;51.354;7.458;2023-09-07T13:51:19;4.57;;;4.18;;
11703;SDS011;5908;51.354;7.458;2023-09-07T13:53:47;5.85;;;4.88;;
11703;SDS011;5908;51.354;7.458;2023-09-07T13:56:15;26.45;;;23.52;;
11703;SDS011;5908;51.354;7.458;2023-09-07T13:58:41;6.28;;;5.22;;
11703;SDS011;5908;51.354;7.458;2023-09-07T14:01:08;53.90;;;46.63;;
11703;SDS011;5908;51.354;7.458;2023-09-07T14:03:35;59.80;;;53.47;;
11703;SDS011;5908;51.354;7.458;2023-09-07T14:06:02;47.60;;;42.50;;
11703;SDS011;5908;51.354;7.458;2023-09-07T14:08:29;54.75;;;48.88;;
11703;SDS011;5908;51.354;7.458;2023-09-07T14:10:59;43.00;;;38.13;;
11703;SDS011;5908;51.354;7.458;2023-09-07T14:13:26;31.13;;;27.77;;
11703;SDS011;5908;51.354;7.458;2023-09-07T14:15:53;40.35;;;36.13;;
11703;SDS011;5908;51.354;7.458;2023-09-07T14:18:20;5.65;;;4.80;;
11703;SDS011;5908;51.354;7.458;2023-09-07T14:20:46;22.15;;;19.80;;
11703;SDS011;5908;51.354;7.458;2023-09-07T14:23:13;47.75;;;42.55;;
11703;SDS011;5908;51.354;7.458;2023-09-07T14:25:40;18.30;;;16.35;;
11703;SDS011;5908;51.354;7.458;2023-09-07T14:28:11;52.65;;;45.55;;
11703;SDS011;5908;51.354;7.458;2023-09-07T14:30:38;39.50;;;35.17;;
11703;SDS011;5908;51.354;7.458;2023-09-07T14:33:04;47.15;;;41.53;;
11703;SDS011;5908;51.354;7.458;2023-09-07T14:35:31;47.38;;;42.45;;
11703;SDS011;5908;51.354;7.458;2023-09-07T14:37:58;24.10;;;21.55;;
11703;SDS011;5908;51.354;7.458;2023-09-07T14:40:25;21.15;;;18.92;;
11703;SDS011;5908;51.354;7.458;2023-09-07T14:42:52;42.50;;;37.25;;
11703;SDS011;5908;51.354;7.458;2023-09-07T14:45:23;9.30;;;8.38;;
11703;SDS011;5908;51.354;7.458;2023-09-07T14:47:50;32.92;;;29.45;;
11703;SDS011;5908;51.354;7.458;2023-09-07T14:50:17;30.45;;;27.15;;
11703;SDS011;5908;51.354;7.458;2023-09-07T14:52:44;26.42;;;23.75;;
11703;SDS011;5908;51.354;7.458;2023-09-07T14:55:12;5.95;;;4.88;;
11703;SDS011;5908;51.354;7.458;2023-09-07T14:57:39;29.88;;;26.20;;
11703;SDS011;5908;51.354;7.458;2023-09-07T15:00:06;25.55;;;22.67;;
11703;SDS011;5908;51.354;7.458;2023-09-07T15:02:35;19.67;;;17.52;;
11703;SDS011;5908;51.354;7.458;2023-09-07T15:05:02;27.42;;;23.45;;
11703;SDS011;5908;51.354;7.458;2023-09-07T15:07:29;13.32;;;11.05;;
11703;SDS011;5908;51.354;7.458;2023-09-07T15:09:56;15.70;;;14.05;;
11703;SDS011;5908;51.354;7.458;2023-09-07T15:12:23;22.83;;;19.67;;
11703;SDS011;5908;51.354;7.458;2023-09-07T15:14:50;26.08;;;23.27;;
11703;SDS011;5908;51.354;7.458;2023-09-07T15:17:16;11.55;;;10.10;;
11703;SDS011;5908;51.354;7.458;2023-09-07T15:19:45;24.98;;;21.58;;
11703;SDS011;5908;51.354;7.458;2023-09-07T15:22:12;10.70;;;9.43;;
11703;SDS011;5908;51.354;7.458;2023-09-07T15:24:39;22.77;;;20.00;;
11703;SDS011;5908;51.354;7.458;2023-09-07T15:27:07;16.98;;;15.23;;
11703;SDS011;5908;51.354;7.458;2023-09-07T15:29:34;11.73;;;8.25;;
11703;SDS011;5908;51.354;7.458;2023-09-07T15:32:01;18.15;;;15.35;;
11703;SDS011;5908;51.354;7.458;2023-09-07T15:34:28;19.08;;;15.82;;
11703;SDS011;5908;51.354;7.458;2023-09-07T15:36:56;22.92;;;16.75;;
11703;SDS011;5908;51.354;7.458;2023-09-07T15:39:23;18.80;;;15.52;;
11703;SDS011;5908;51.354;7.458;2023-09-07T15:41:50;6.07;;;4.50;;
11703;SDS011;5908;51.354;7.458;2023-09-07T15:44:17;19.30;;;13.25;;
11703;SDS011;5908;51.354;7.458;2023-09-07T15:46:44;20.73;;;11.73;;
11703;SDS011;5908;51.354;7.458;2023-09-07T15:49:11;13.95;;;8.60;;
11703;SDS011;5908;51.354;7.458;2023-09-07T15:51:38;13.27;;;8.02;;
11703;SDS011;5908;51.354;7.458;2023-09-07T15:54:06;15.20;;;7.63;;
11703;SDS011;5908;51.354;7.458;2023-09-07T15:56:33;10.88;;;8.30;;
11703;SDS011;5908;51.354;7.458;2023-09-07T15:58:59;7.68;;;5.18;;
11703;SDS011;5908;51.354;7.458;2023-09-07T16:01:26;5.20;;;4.15;;
11703;SDS011;5908;51.354;7.458;2023-09-07T16:03:53;11.75;;;7.30;;
11703;SDS011;5908;51.354;7.458;2023-09-07T16:06:20;10.00;;;6.43;;
11703;SDS011;5908;51.354;7.458;2023-09-07T16:08:46;7.57;;;5.38;;
11703;SDS011;5908;51.354;7.458;2023-09-07T16:11:14;10.85;;;5.93;;
11703;SDS011;5908;51.354;7.458;2023-09-07T16:13:41;8.38;;;5.45;;
11703;SDS011;5908;51.354;7.458;2023-09-07T16:16:08;11.57;;;6.40;;
11703;SDS011;5908;51.354;7.458;2023-09-07T16:18:35;8.43;;;6.28;;
11703;SDS011;5908;51.354;7.458;2023-09-07T16:21:01;7.28;;;4.55;;
11703;SDS011;5908;51.354;7.458;2023-09-07T16:23:31;9.80;;;5.05;;
11703;SDS011;5908;51.354;7.458;2023-09-07T16:25:58;6.78;;;4.22;;
11703;SDS011;5908;51.354;7.458;2023-09-07T16:28:26;7.28;;;6.15;;
11703;SDS011;5908;51.354;7.458;2023-09-07T16:30:53;5.03;;;4.53;;
11703;SDS011;5908;51.354;7.458;2023-09-07T16:33:19;4.88;;;4.38;;
11703;SDS011;5908;51.354;7.458;2023-09-07T16:35:46;7.30;;;5.20;;
11703;SDS011;5908;51.354;7.458;2023-09-07T16:38:13;5.53;;;5.05;;
11703;SDS011;5908;51.354;7.458;2023-09-07T16:40:40;16.60;;;7.88;;
11703;SDS011;5908;51.354;7.458;2023-09-07T16:43:07;5.70;;;5.20;;
11703;SDS011;5908;51.354;7.458;2023-09-07T16:45:35;8.93;;;8.02;;
11703;SDS011;5908;51.354;7.458;2023-09-07T16:48:02;10.13;;;8.50;;
11703;SDS011;5908;51.354;7.458;2023-09-07T16:50:29;9.15;;;8.25;;
11703;SDS011;5908;51.354;7.458;2023-09-07T16:52:56;8.70;;;6.57;;
11703;SDS011;5908;51.354;7.458;2023-09-07T16:55:23;8.60;;;6.15;;
11703;SDS011;5908;51.354;7.458;2023-09-07T16:57:50;6.18;;;5.57;;
11703;SDS011;5908;51.354;7.458;2023-09-07T17:00:17;6.65;;;5.30;;
11703;SDS011;5908;51.354;7.458;2023-09-07T17:02:45;8.52;;;5.85;;
11703;SDS011;5908;51.354;7.458;2023-09-07T17:05:12;6.75;;;5.78;;
11703;SDS011;5908;51.354;7.458;2023-09-07T17:07:39;5.88;;;4.35;;
11703;SDS011;5908;51.354;7.458;2023-09-07T17:10:06;7.13;;;5.35;;
11703;SDS011;5908;51.354;7.458;2023-09-07T17:12:34;6.35;;;5.40;;
11703;SDS011;5908;51.354;7.458;2023-09-07T17:15:00;5.82;;;5.22;;
11703;SDS011;5908;51.354;7.458;2023-09-07T17:17:30;7.68;;;5.10;;
11703;SDS011;5908;51.354;7.458;2023-09-07T17:19:59;7.25;;;4.72;;
11703;SDS011;5908;51.354;7.458;2023-09-07T17:22:26;6.57;;;5.65;;
11703;SDS011;5908;51.354;7.458;2023-09-07T17:24:52;10.98;;;8.60;;
11703;SDS011;5908;51.354;7.458;2023-09-07T17:27:19;14.75;;;13.13;;
11703;SDS011;5908;51.354;7.458;2023-09-07T17:29:46;41.30;;;37.08;;
11703;SDS011;5908;51.354;7.458;2023-09-07T17:32:13;52.83;;;47.38;;
11703;SDS011;5908;51.354;7.458;2023-09-07T17:34:40;58.40;;;52.65;;
11703;SDS011;5908;51.354;7.458;2023-09-07T17:37:08;46.25;;;41.70;;
11703;SDS011;5908;51.354;7.458;2023-09-07T17:39:35;43.70;;;39.50;;
11703;SDS011;5908;51.354;7.458;2023-09-07T17:42:01;81.80;;;73.70;;
11703;SDS011;5908;51.354;7.458;2023-09-07T17:44:28;102.95;;;92.50;;
11703;SDS011;5908;51.354;7.458;2023-09-07T17:46:55;116.50;;;104.87;;
11703;SDS011;5908;51.354;7.458;2023-09-07T17:49:22;109.85;;;98.93;;
11703;SDS011;5908;51.354;7.458;2023-09-07T17:51:49;67.82;;;61.00;;
11703;SDS011;5908;51.354;7.458;2023-09-07T17:54:17;67.60;;;60.83;;
11703;SDS011;5908;51.354;7.458;2023-09-07T17:56:44;142.80;;;128.45;;
11703;SDS011;5908;51.354;7.458;2023-09-07T17:59:11;59.65;;;53.67;;
11703;SDS011;5908;51.354;7.458;2023-09-07T18:01:38;113.22;;;101.85;;
11703;SDS011;5908;51.354;7.458;2023-09-07T18:04:05;104.22;;;93.95;;
11703;SDS011;5908;51.354;7.458;2023-09-07T18:06:32;91.57;;;82.35;;
11703;SDS011;5908;51.354;7.458;2023-09-07T18:08:59;122.32;;;110.00;;
11703;SDS011;5908;51.354;7.458;2023-09-07T18:11:27;100.40;;;90.03;;
11703;SDS011;5908;51.354;7.458;2023-09-07T18:13:54;64.43;;;57.28;;
11703;SDS011;5908;51.354;7.458;2023-09-07T18:16:20;82.00;;;73.40;;
11703;SDS011;5908;51.354;7.458;2023-09-07T18:18:48;130.75;;;117.13;;
11703;SDS011;5908;51.354;7.458;2023-09-07T18:21:15;121.15;;;108.53;;
11703;SDS011;5908;51.354;7.458;2023-09-07T18:23:42;66.68;;;59.80;;
11703;SDS011;5908;51.354;7.458;2023-09-07T18:26:10;46.72;;;41.85;;
11703;SDS011;5908;51.354;7.458;2023-09-07T18:28:38;18.30;;;16.35;;
11703;SDS011;5908;51.354;7.458;2023-09-07T18:31:07;6.07;;;4.95;;
11703;SDS011;5908;51.354;7.458;2023-09-07T18:33:34;60.85;;;54.25;;
11703;SDS011;5908;51.354;7.458;2023-09-07T18:36:01;25.38;;;22.17;;
11703;SDS011;5908;51.354;7.458;2023-09-07T18:38:29;33.90;;;29.48;;
11703;SDS011;5908;51.354;7.458;2023-09-07T18:40:57;22.63;;;19.50;;
11703;SDS011;5908;51.354;7.458;2023-09-07T18:43:25;8.60;;;6.18;;
11703;SDS011;5908;51.354;7.458;2023-09-07T18:45:53;9.82;;;8.75;;
11703;SDS011;5908;51.354;7.458;2023-09-07T18:48:20;15.50;;;13.25;;
11703;SDS011;5908;51.354;7.458;2023-09-07T18:50:47;9.48;;;7.55;;
11703;SDS011;5908;51.354;7.458;2023-09-07T18:53:14;7.25;;;5.20;;
11703;SDS011;5908;51.354;7.458;2023-09-07T18:55:41;7.03;;;5.93;;
11703;SDS011;5908;51.354;7.458;2023-09-07T18:58:07;12.00;;;10.77;;
11703;SDS011;5908;51.354;7.458;2023-09-07T19:00:34;6.47;;;5.50;;
11703;SDS011;5908;51.354;7.458;2023-09-07T19:03:04;11.73;;;8.47;;
11703;SDS011;5908;51.354;7.458;2023-09-07T19:05:30;9.35;;;6.75;;
11703;SDS011;5908;51.354;7.458;2023-09-07T19:07:57;7.43;;;6.15;;
11703;SDS011;5908;51.354;7.458;2023-09-07T19:10:24;9.93;;;6.05;;
11703;SDS011;5908;51.354;7.458;2023-09-07T19:12:52;6.32;;;5.40;;
11703;SDS011;5908;51.354;7.458;2023-09-07T19:15:19;7.75;;;6.03;;
11703;SDS011;5908;51.354;7.458;2023-09-07T19:17:45;10.18;;;8.20;;
11703;SDS011;5908;51.354;7.458;2023-09-07T19:20:14;7.22;;;6.03;;
11703;SDS011;5908;51.354;7.458;2023-09-07T19:22:41;8.00;;;7.20;;
11703;SDS011;5908;51.354;7.458;2023-09-07T19:25:08;8.68;;;6.95;;
11703;SDS011;5908;51.354;7.458;2023-09-07T19:27:35;13.95;;;12.02;;
11703;SDS011;5908;51.354;7.458;2023-09-07T19:30:03;8.85;;;7.63;;
11703;SDS011;5908;51.354;7.458;2023-09-07T19:32:32;8.60;;;6.43;;
11703;SDS011;5908;51.354;7.458;2023-09-07T19:34:59;25.83;;;23.13;;
11703;SDS011;5908;51.354;7.458;2023-09-07T19:37:30;19.05;;;15.05;;
11703;SDS011;5908;51.354;7.458;2023-09-07T19:39:56;39.65;;;35.38;;
11703;SDS011;5908;51.354;7.458;2023-09-07T19:42:23;44.63;;;39.03;;
11703;SDS011;5908;51.354;7.458;2023-09-07T19:44:50;7.72;;;5.75;;
11703;SDS011;5908;51.354;7.458;2023-09-07T19:47:17;16.17;;;14.15;;
11703;SDS011;5908;51.354;7.458;2023-09-07T19:49:43;35.65;;;30.55;;
11703;SDS011;5908;51.354;7.458;2023-09-07T19:52:10;9.43;;;8.37;;
11703;SDS011;5908;51.354;7.458;2023-09-07T19:54:38;102.43;;;88.95;;
11703;SDS011;5908;51.354;7.458;2023-09-07T19:57:05;58.60;;;50.83;;
11703;SDS011;5908;51.354;7.458;2023-09-07T19:59:32;37.15;;;31.88;;
11703;SDS011;5908;51.354;7.458;2023-09-07T20:01:59;73.68;;;63.78;;
11703;SDS011;5908;51.354;7.458;2023-09-07T20:04:28;110.15;;;96.30;;
11703;SDS011;5908;51.354;7.458;2023-09-07T20:06:55;74.82;;;64.22;;
11703;SDS011;5908;51.354;7.458;2023-09-07T20:09:22;24.63;;;21.92;;
11703;SDS011;5908;51.354;7.458;2023-09-07T20:11:50;24.27;;;21.15;;
11703;SDS011;5908;51.354;7.458;2023-09-07T20:14:18;65.18;;;56.85;;
11703;SDS011;5908;51.354;7.458;2023-09-07T20:16:45;54.00;;;45.60;;
11703;SDS011;5908;51.354;7.458;2023-09-07T20:19:13;21.02;;;17.30;;
11703;SDS011;5908;51.354;7.458;2023-09-07T20:21:39;56.50;;;48.25;;
11703;SDS011;5908;51.354;7.458;2023-09-07T20:24:06;31.63;;;27.15;;
11703;SDS011;5908;51.354;7.458;2023-09-07T20:26:34;100.13;;;85.93;;
11703;SDS011;5908;51.354;7.458;2023-09-07T20:29:02;119.30;;;102.13;;
11703;SDS011;5908;51.354;7.458;2023-09-07T20:31:30;85.88;;;72.28;;
11703;SDS011;5908;51.354;7.458;2023-09-07T20:33:57;123.32;;;105.20;;
11703;SDS011;5908;51.354;7.458;2023-09-07T20:36:23;44.90;;;39.03;;
11703;SDS011;5908;51.354;7.458;2023-09-07T20:38:50;133.00;;;113.15;;
11703;SDS011;5908;51.354;7.458;2023-09-07T20:41:17;133.15;;;108.20;;
11703;SDS011;5908;51.354;7.458;2023-09-07T20:43:44;123.20;;;102.22;;
11703;SDS011;5908;51.354;7.458;2023-09-07T20:46:13;127.15;;;106.03;;
11703;SDS011;5908;51.354;7.458;2023-09-07T20:48:40;55.28;;;43.40;;
11703;SDS011;5908;51.354;7.458;2023-09-07T20:51:06;40.55;;;34.10;;
11703;SDS011;5908;51.354;7.458;2023-09-07T20:53:34;86.68;;;70.93;;
11703;SDS011;5908;51.354;7.458;2023-09-07T20:56:00;36.00;;;29.90;;
11703;SDS011;5908;51.354;7.458;2023-09-07T20:58:27;39.40;;;33.78;;
11703;SDS011;5908;51.354;7.458;2023-09-07T21:00:54;17.98;;;15.00;;
11703;SDS011;5908;51.354;7.458;2023-09-07T21:03:23;120.63;;;100.35;;
11703;SDS011;5908;51.354;7.458;2023-09-07T21:05:49;24.67;;;21.20;;
11703;SDS011;5908;51.354;7.458;2023-09-07T21:08:16;38.78;;;32.60;;
11703;SDS011;5908;51.354;7.458;2023-09-07T21:10:43;33.03;;;26.33;;
11703;SDS011;5908;51.354;7.458;2023-09-07T21:13:11;96.47;;;77.25;;
11703;SDS011;5908;51.354;7.458;2023-09-07T21:15:38;23.02;;;20.05;;
11703;SDS011;5908;51.354;7.458;2023-09-07T21:18:05;52.05;;;42.15;;
11703;SDS011;5908;51.354;7.458;2023-09-07T21:20:33;8.23;;;7.03;;
11703;SDS011;5908;51.354;7.458;2023-09-07T21:23:00;18.67;;;14.40;;
11703;SDS011;5908;51.354;7.458;2023-09-07T21:25:27;10.57;;;8.93;;
11703;SDS011;5908;51.354;7.458;2023-09-07T21:27:54;9.35;;;7.05;;
11703;SDS011;5908;51.354;7.458;2023-09-07T21:30:21;46.78;;;36.60;;
11703;SDS011;5908;51.354;7.458;2023-09-07T21:32:47;22.98;;;18.50;;
11703;SDS011;5908;51.354;7.458;2023-09-07T21:35:14;11.65;;;8.82;;
11703;SDS011;5908;51.354;7.458;2023-09-07T21:37:43;16.00;;;12.67;;
11703;SDS011;5908;51.354;7.458;2023-09-07T21:40:10;9.35;;;7.63;;
11703;SDS011;5908;51.354;7.458;2023-09-07T21:42:37;53.20;;;44.80;;
11703;SDS011;5908;51.354;7.458;2023-09-07T21:45:04;14.48;;;11.52;;
11703;SDS011;5908;51.354;7.458;2023-09-07T21:47:31;82.15;;;66.93;;
11703;SDS011;5908;51.354;7.458;2023-09-07T21:49:59;67.43;;;55.43;;
11703;SDS011;5908;51.354;7.458;2023-09-07T21:52:25;13.93;;;10.77;;
11703;SDS011;5908;51.354;7.458;2023-09-07T21:54:53;42.27;;;34.87;;
11703;SDS011;5908;51.354;7.458;2023-09-07T21:57:22;64.43;;;53.90;;
11703;SDS011;5908;51.354;7.458;2023-09-07T21:59:49;9.93;;;8.00;;
11703;SDS011;5908;51.354;7.458;2023-09-07T22:02:16;16.00;;;13.85;;
11703;SDS011;5908;51.354;7.458;2023-09-07T22:04:43;15.00;;;12.00;;
11703;SDS011;5908;51.354;7.458;2023-09-07T22:07:10;16.88;;;14.00;;
11703;SDS011;5908;51.354;7.458;2023-09-07T22:09:36;13.65;;;12.20;;
11703;SDS011;5908;51.354;7.458;2023-09-07T22:12:05;21.45;;;19.17;;
11703;SDS011;5908;51.354;7.458;2023-09-07T22:14:32;50.33;;;44.17;;
11703;SDS011;5908;51.354;7.458;2023-09-07T22:16:59;24.70;;;22.07;;
11703;SDS011;5908;51.354;7.458;2023-09-07T22:19:26;45.45;;;38.63;;
11703;SDS011;5908;51.354;7.458;2023-09-07T22:21:53;60.42;;;50.65;;
11703;SDS011;5908;51.354;7.458;2023-09-07T22:24:20;44.33;;;37.80;;
11703;SDS011;5908;51.354;7.458;2023-09-07T22:26:47;85.40;;;71.40;;
11703;SDS011;5908;51.354;7.458;2023-09-07T22:29:17;14.02;;;12.00;;
11703;SDS011;5908;51.354;7.458;2023-09-07T22:31:44;31.75;;;27.77;;
11703;SDS011;5908;51.354;7.458;2023-09-07T22:34:10;14.73;;;12.27;;
11703;SDS011;5908;51.354;7.458;2023-09-07T22:36:37;16.60;;;14.65;;
11703;SDS011;5908;51.354;7.458;2023-09-07T22:39:05;16.85;;;15.10;;
11703;SDS011;5908;51.354;7.458;2023-09-07T22:41:32;20.60;;;17.27;;
11703;SDS011;5908;51.354;7.458;2023-09-07T22:44:00;10.35;;;9.18;;
11703;SDS011;5908;51.354;7.458;2023-09-07T22:46:28;13.80;;;12.35;;
11703;SDS011;5908;51.354;7.458;2023-09-07T22:48:54;10.65;;;9.55;;
11703;SDS011;5908;51.354;7.458;2023-09-07T22:51:21;11.75;;;10.55;;
11703;SDS011;5908;51.354;7.458;2023-09-07T22:53:48;24.38;;;21.45;;
11703;SDS011;5908;51.354;7.458;2023-09-07T22:56:15;14.38;;;10.90;;
11703;SDS011;5908;51.354;7.458;2023-09-07T22:58:42;11.75;;;9.20;;
11703;SDS011;5908;51.354;7.458;2023-09-07T23:01:09;15.35;;;12.57;;
11703;SDS011;5908;51.354;7.458;2023-09-07T23:03:36;13.57;;;12.10;;
11703;SDS011;5908;51.354;7.458;2023-09-07T23:06:03;23.92;;;19.50;;
11703;SDS011;5908;51.354;7.458;2023-09-07T23:08:30;12.80;;;10.90;;
11703;SDS011;5908;51.354;7.458;2023-09-07T23:10:56;9.90;;;8.90;;
11703;SDS011;5908;51.354;7.458;2023-09-07T23:13:23;10.15;;;8.30;;
11703;SDS011;5908;51.354;7.458;2023-09-07T23:15:50;12.00;;;10.70;;
11703;SDS011;5908;51.354;7.458;2023-09-07T23:18:17;9.05;;;8.15;;
11703;SDS011;5908;51.354;7.458;2023-09-07T23:20:46;11.80;;;8.40;;
11703;SDS011;5908;51.354;7.458;2023-09-07T23:23:13;8.60;;;7.53;;
11703;SDS011;5908;51.354;7.458;2023-09-07T23:25:40;9.13;;;8.13;;
11703;SDS011;5908;51.354;7.458;2023-09-07T23:28:07;10.52;;;8.70;;